Time;durP1;ratioP1;P1;durP2;ratioP2;P2;SDS_P1;SDS_P2;PMS_P1;PMS_P2;Temp;Humidity;BMP_temperature;BMP_pressure;BME280_temperature;BME280_humidity;BME280_pressure;Samples;Min_cycle;Max_cycle;Signal;HPM_P1;HPM_P2
2023/09/02 00:02:17;;;;;;;15.38;7.60;;;;;;;-144.73;100.00;54411.81;5020452;28;20036;-72
2023/09/02 00:04:42;;;;;;;16.33;8.15;;;;;;;-144.73;100.00;54407.69;5023851;28;20041;-72
2023/09/02 00:07:07;;;;;;;16.50;7.47;;;;;;;-144.73;100.00;54444.66;5030346;28;20056;-72
2023/09/02 00:09:33;;;;;;;20.85;7.70;;;;;;;-144.73;100.00;54446.69;5018844;28;20069;-72
2023/09/02 00:11:58;;;;;;;13.85;6.95;;;;;;;-144.73;100.00;54446.69;5036803;28;20076;-72
2023/09/02 00:14:24;;;;;;;16.35;7.53;;;;;;;-144.73;100.00;54461.06;5027639;28;20075;-72
2023/09/02 00:16:49;;;;;;;16.23;7.65;;;;;;;-144.73;100.00;54450.81;5018539;28;20449;-72
2023/09/02 00:19:14;;;;;;;14.25;6.95;;;;;;;-144.73;100.00;54448.75;5026616;28;20079;-72
2023/09/02 00:21:40;;;;;;;16.58;7.07;;;;;;;-144.73;100.00;54454.91;5022182;28;20112;-72
2023/09/02 00:24:06;;;;;;;18.40;7.78;;;;;;;-144.73;100.00;54446.69;5023949;28;21184;-72
2023/09/02 00:26:32;;;;;;;15.10;7.07;;;;;;;-144.73;100.00;54477.47;5013551;28;20080;-72
2023/09/02 00:28:59;;;;;;;12.48;6.93;;;;;;;-144.73;100.00;54411.81;5039007;28;20044;-73
2023/09/02 00:31:24;;;;;;;13.88;6.90;;;;;;;-144.73;100.00;54436.44;5019087;28;20064;-72
2023/09/02 00:33:50;;;;;;;12.45;7.55;;;;;;;-144.73;100.00;54428.22;5015377;28;20046;-72
2023/09/02 00:36:15;;;;;;;12.85;6.78;;;;;;;-144.73;100.00;54450.81;5019172;28;20028;-71
2023/09/02 00:38:41;;;;;;;11.90;6.95;;;;;;;-144.73;100.00;54442.59;5032836;28;20029;-73
2023/09/02 00:41:12;;;;;;;13.80;6.97;;;;;;;-144.73;100.00;54456.97;5021485;28;20040;-72
2023/09/02 00:43:39;;;;;;;14.10;6.53;;;;;;;-144.73;100.00;54444.66;5017009;28;20029;-73
2023/09/02 00:46:05;;;;;;;18.05;7.22;;;;;;;-144.73;100.00;54436.44;5044276;28;20037;-73
2023/09/02 00:48:31;;;;;;;16.48;8.45;;;;;;;-144.73;100.00;54452.84;5027178;28;20534;-73
2023/09/02 00:50:56;;;;;;;12.25;7.53;;;;;;;-144.73;100.00;54452.84;5020998;28;20041;-73
2023/09/02 00:53:24;;;;;;;14.38;6.82;;;;;;;-144.73;100.00;54465.16;5021062;28;20048;-73
2023/09/02 00:55:50;;;;;;;22.70;7.25;;;;;;;-144.73;100.00;54415.91;5020784;28;20098;-73
2023/09/02 00:58:16;;;;;;;16.30;7.75;;;;;;;-144.73;100.00;54424.13;5038259;28;20052;-75
2023/09/02 01:00:42;;;;;;;12.35;8.20;;;;;;;-144.73;100.00;54411.81;5039665;28;20396;-73
2023/09/02 01:03:07;;;;;;;18.25;8.07;;;;;;;-144.73;100.00;54397.44;5041220;28;20025;-73
2023/09/02 01:05:34;;;;;;;18.55;8.02;;;;;;;-144.73;100.00;54424.13;5040966;28;20017;-73
2023/09/02 01:07:59;;;;;;;14.98;8.15;;;;;;;-144.73;100.00;54399.50;5016362;28;20052;-73
2023/09/02 01:10:25;;;;;;;16.88;7.43;;;;;;;-144.73;100.00;54452.84;5014515;28;20461;-73
2023/09/02 01:12:50;;;;;;;19.70;8.35;;;;;;;-144.73;100.00;54448.75;5033091;28;20107;-73
2023/09/02 01:15:16;;;;;;;17.38;7.93;;;;;;;-144.73;100.00;54461.06;5020636;28;20055;-72
2023/09/02 01:17:41;;;;;;;12.25;6.88;;;;;;;-144.73;100.00;54436.44;5019435;28;20025;-73
2023/09/02 01:20:11;;;;;;;17.27;7.88;;;;;;;-144.73;100.00;54409.75;5019541;28;20078;-75
2023/09/02 01:22:57;;;;;;;15.02;7.85;;;;;;;-144.73;100.00;54409.75;5020327;28;20021;-73
2023/09/02 01:25:53;;;;;;;16.50;8.40;;;;;;;-144.73;100.00;54469.28;5011539;28;20025;-73
2023/09/02 01:28:28;;;;;;;11.80;6.88;;;;;;;-144.73;100.00;54467.22;5038971;28;20068;-73
2023/09/02 01:30:55;;;;;;;15.05;7.55;;;;;;;-144.73;100.00;54444.66;5029457;28;20112;-72
2023/09/02 01:33:23;;;;;;;18.48;7.70;;;;;;;-144.73;100.00;54452.84;5035576;28;20042;-73
2023/09/02 01:35:50;;;;;;;19.98;8.27;;;;;;;-144.73;100.00;54461.06;5019859;28;20025;-73
2023/09/02 01:38:17;;;;;;;20.95;8.88;;;;;;;-144.73;100.00;54432.31;5013038;28;20069;-72
2023/09/02 01:40:45;;;;;;;14.52;7.55;;;;;;;-144.73;100.00;54438.50;5022542;28;20017;-73
2023/09/02 01:43:10;;;;;;;12.73;7.65;;;;;;;-144.73;100.00;54489.81;5009213;28;20045;-73
2023/09/02 01:45:36;;;;;;;14.43;7.10;;;;;;;-144.73;100.00;54465.16;5035084;28;20017;-73
2023/09/02 01:48:03;;;;;;;15.85;7.80;;;;;;;-144.73;100.00;54485.69;5030055;28;20029;-73
2023/09/02 01:50:32;;;;;;;16.05;8.43;;;;;;;-144.73;100.00;54391.28;5016558;28;20052;-73
2023/09/02 01:52:59;;;;;;;17.60;8.73;;;;;;;-144.73;100.00;54473.38;5018832;28;20041;-72
2023/09/02 01:55:24;;;;;;;18.42;8.02;;;;;;;-144.73;100.00;54461.06;5021181;28;20045;-72
2023/09/02 01:57:50;;;;;;;17.10;8.70;;;;;;;-144.73;100.00;54426.16;5030981;28;20083;-73
2023/09/02 02:00:15;;;;;;;16.90;8.88;;;;;;;-144.73;100.00;54436.44;5034455;28;20021;-72
2023/09/02 02:02:42;;;;;;;18.52;8.18;;;;;;;-144.73;100.00;54452.84;5022994;28;20036;-72
2023/09/02 02:05:12;;;;;;;13.18;7.63;;;;;;;-144.73;100.00;54461.06;5036505;28;20526;-73
2023/09/02 02:07:41;;;;;;;15.90;7.40;;;;;;;-144.73;100.00;54465.16;5022100;28;20577;-73
2023/09/02 02:10:11;;;;;;;14.68;7.50;;;;;;;-144.73;100.00;54432.31;5040229;28;20271;-72
2023/09/02 02:12:41;;;;;;;12.38;6.85;;;;;;;-144.73;100.00;54420.00;5022846;28;20049;-72
2023/09/02 02:15:10;;;;;;;12.90;6.00;;;;;;;-144.73;100.00;54440.53;5020630;28;20024;-72
2023/09/02 02:17:37;;;;;;;12.70;6.68;;;;;;;-144.73;100.00;54399.50;5024186;28;20043;-73
2023/09/02 02:20:02;;;;;;;20.50;8.52;;;;;;;-144.73;100.00;54452.84;5021986;28;20056;-72
2023/09/02 02:22:28;;;;;;;19.90;8.23;;;;;;;-144.73;100.00;54440.53;5023758;28;20102;-72
2023/09/02 02:24:53;;;;;;;14.43;7.20;;;;;;;-144.73;100.00;54436.44;5023109;28;20104;-73
2023/09/02 02:27:20;;;;;;;18.35;8.50;;;;;;;-144.73;100.00;54432.31;5042118;28;20476;-72
2023/09/02 02:29:45;;;;;;;16.55;7.47;;;;;;;-144.73;100.00;54411.81;5011546;28;20038;-72
2023/09/02 02:32:11;;;;;;;14.63;8.23;;;;;;;-144.73;100.00;54436.44;5024563;28;20032;-72
2023/09/02 02:34:36;;;;;;;15.50;8.55;;;;;;;-144.73;100.00;54448.75;5018576;28;20041;-72
2023/09/02 02:37:02;;;;;;;18.10;8.68;;;;;;;-144.73;100.00;54420.00;5023785;28;20145;-73
2023/09/02 02:39:29;;;;;;;12.35;8.07;;;;;;;-144.73;100.00;54477.47;5039027;28;20041;-73
2023/09/02 02:41:54;;;;;;;14.30;7.93;;;;;;;-144.73;100.00;54452.84;5023600;28;20070;-73
2023/09/02 02:44:19;;;;;;;13.18;7.13;;;;;;;-144.73;100.00;54420.00;5038442;28;20076;-73
2023/09/02 02:46:46;;;;;;;19.10;8.27;;;;;;;-144.73;100.00;54469.28;5020419;28;20043;-72
2023/09/02 02:49:12;;;;;;;18.90;8.13;;;;;;;-144.73;100.00;54440.53;5017159;28;20033;-72
2023/09/02 02:51:37;;;;;;;18.10;8.05;;;;;;;-144.73;100.00;54428.22;5036208;28;20029;-72
2023/09/02 02:54:02;;;;;;;19.10;8.00;;;;;;;-144.73;100.00;54450.81;5021758;28;20034;-73
2023/09/02 02:56:28;;;;;;;18.48;7.28;;;;;;;-144.73;100.00;54452.84;5025377;28;20028;-73
2023/09/02 02:58:54;;;;;;;12.52;7.85;;;;;;;-144.73;100.00;54459.00;5023545;28;20041;-73
2023/09/02 03:01:20;;;;;;;12.70;6.72;;;;;;;-144.73;100.00;54448.75;5039859;28;20017;-72
2023/09/02 03:03:46;;;;;;;15.45;8.77;;;;;;;-144.73;100.00;54432.31;5024930;28;20025;-72
2023/09/02 03:06:17;;;;;;;16.63;8.27;;;;;;;-144.73;100.00;54432.31;5032283;28;20021;-73
2023/09/02 03:08:42;;;;;;;12.48;6.90;;;;;;;-144.73;100.00;54463.13;5014458;28;20033;-73
2023/09/02 03:11:07;;;;;;;13.07;7.20;;;;;;;-144.73;100.00;54459.00;5035987;28;20499;-73
2023/09/02 03:13:36;;;;;;;17.90;7.40;;;;;;;-144.73;100.00;54424.13;5040955;28;20047;-72
2023/09/02 03:16:02;;;;;;;18.00;8.50;;;;;;;-144.73;100.00;54432.31;5017177;28;20022;-72
2023/09/02 03:18:28;;;;;;;14.93;7.90;;;;;;;-144.73;100.00;54440.53;5033287;28;20547;-73
2023/09/02 03:20:54;;;;;;;13.65;8.00;;;;;;;-144.73;100.00;54448.75;5019048;28;20029;-73
2023/09/02 03:23:20;;;;;;;12.75;7.47;;;;;;;-144.73;100.00;54432.31;5040192;28;20098;-72
2023/09/02 03:25:45;;;;;;;16.88;6.95;;;;;;;-144.73;100.00;54467.22;5021765;28;20060;-73
2023/09/02 03:28:12;;;;;;;20.20;8.32;;;;;;;-144.73;100.00;54432.31;5026911;28;20021;-73
2023/09/02 03:30:37;;;;;;;15.57;7.82;;;;;;;-144.73;100.00;54442.59;5044376;28;20021;-73
2023/09/02 03:33:03;;;;;;;15.05;7.55;;;;;;;-144.73;100.00;54489.81;5015718;28;20056;-73
2023/09/02 03:35:28;;;;;;;17.20;9.27;;;;;;;-144.73;100.00;54442.59;5022023;28;20025;-73
2023/09/02 03:37:54;;;;;;;18.13;8.63;;;;;;;-144.73;100.00;54436.44;5027299;28;20040;-73
2023/09/02 03:40:19;;;;;;;15.30;7.90;;;;;;;-144.73;100.00;54440.53;5039720;28;20040;-73
2023/09/02 03:42:44;;;;;;;30.15;8.93;;;;;;;-144.73;100.00;54440.53;5026475;28;20102;-73
2023/09/02 03:45:10;;;;;;;20.52;8.70;;;;;;;-144.73;100.00;54428.22;5029059;28;20032;-73
2023/09/02 03:47:36;;;;;;;18.65;9.00;;;;;;;-144.73;100.00;54424.13;5024819;28;20112;-72
2023/09/02 03:50:03;;;;;;;16.70;9.45;;;;;;;-144.73;100.00;54442.59;5016803;28;20021;-73
2023/09/02 03:52:28;;;;;;;17.35;9.20;;;;;;;-144.73;100.00;54452.84;5024572;28;20091;-72
2023/09/02 03:54:54;;;;;;;14.07;8.13;;;;;;;-144.73;100.00;54444.66;5020091;28;20021;-72
2023/09/02 03:57:19;;;;;;;16.33;7.32;;;;;;;-144.73;100.00;54473.38;5022654;28;20075;-72
2023/09/02 03:59:44;;;;;;;20.75;8.05;;;;;;;-144.73;100.00;54436.44;5021801;28;20067;-73
2023/09/02 04:02:10;;;;;;;15.77;7.55;;;;;;;-144.73;100.00;54461.06;5018652;28;20439;-72
2023/09/02 04:04:35;;;;;;;14.90;8.63;;;;;;;-144.73;100.00;54420.00;5019711;28;20043;-73
2023/09/02 04:07:00;;;;;;;13.50;7.68;;;;;;;-144.73;100.00;54428.22;5020718;28;20033;-72
2023/09/02 04:09:27;;;;;;;15.98;8.25;;;;;;;-144.73;100.00;54469.28;5030214;28;20037;-73
2023/09/02 04:11:52;;;;;;;16.27;8.57;;;;;;;-144.73;100.00;54456.97;5043301;28;20079;-73
2023/09/02 04:14:18;;;;;;;19.00;7.90;;;;;;;-144.73;100.00;54469.28;5022719;28;20034;-73
2023/09/02 04:16:43;;;;;;;18.33;8.93;;;;;;;-144.73;100.00;54444.66;5022030;28;20020;-72
2023/09/02 04:19:08;;;;;;;22.55;8.02;;;;;;;-144.73;100.00;54465.16;5021819;28;20101;-73
2023/09/02 04:21:34;;;;;;;13.82;7.75;;;;;;;-144.73;100.00;54452.84;5025947;28;20029;-73
2023/09/02 04:24:00;;;;;;;18.52;8.45;;;;;;;-144.73;100.00;54489.81;5045278;28;20139;-72
2023/09/02 04:26:26;;;;;;;15.35;8.10;;;;;;;-144.73;100.00;54498.00;5013343;28;20071;-73
2023/09/02 04:28:55;;;;;;;15.05;8.30;;;;;;;-144.73;100.00;54448.75;5026355;28;20116;-73
2023/09/02 04:31:21;;;;;;;12.82;7.93;;;;;;;-144.73;100.00;54428.22;5020266;28;20036;-72
2023/09/02 04:33:47;;;;;;;14.63;8.20;;;;;;;-144.73;100.00;54469.28;5036298;28;20092;-72
2023/09/02 04:36:12;;;;;;;17.98;10.07;;;;;;;-144.73;100.00;54422.06;5013673;28;20021;-74
2023/09/02 04:38:37;;;;;;;21.95;11.40;;;;;;;-144.73;100.00;54485.69;5024727;28;20088;-74
2023/09/02 04:41:06;;;;;;;19.80;9.68;;;;;;;-144.73;100.00;54456.97;5031283;28;20031;-74
2023/09/02 04:43:33;;;;;;;17.70;9.25;;;;;;;-144.73;100.00;54436.44;5018632;28;20029;-73
2023/09/02 04:46:02;;;;;;;18.58;8.35;;;;;;;-144.73;100.00;54448.75;5017221;28;20032;-74
2023/09/02 04:48:28;;;;;;;15.82;8.95;;;;;;;-144.73;100.00;54493.91;5019899;28;20037;-73
2023/09/02 04:50:54;;;;;;;23.70;9.90;;;;;;;-144.73;100.00;54432.31;5023044;28;20136;-73
2023/09/02 04:53:19;;;;;;;17.15;10.45;;;;;;;-144.73;100.00;54444.66;5020335;28;20135;-73
2023/09/02 04:55:45;;;;;;;18.80;10.40;;;;;;;-144.73;100.00;54469.28;5027974;28;20084;-73
2023/09/02 04:58:10;;;;;;;18.92;9.23;;;;;;;-144.73;100.00;54452.84;5027839;28;20037;-73
2023/09/02 05:00:37;;;;;;;16.75;10.25;;;;;;;-144.73;100.00;54452.84;5025130;28;20473;-73
2023/09/02 05:03:02;;;;;;;26.73;13.57;;;;;;;-144.73;100.00;54436.44;5024321;28;20036;-73
2023/09/02 05:05:29;;;;;;;16.73;10.27;;;;;;;-144.73;100.00;54459.00;5043678;28;20029;-73
2023/09/02 05:07:55;;;;;;;24.88;10.25;;;;;;;-144.73;100.00;54444.66;5034242;28;20092;-73
2023/09/02 05:10:21;;;;;;;42.10;10.20;;;;;;;-144.73;100.00;54495.97;5017478;28;20036;-74
2023/09/02 05:12:46;;;;;;;17.75;9.32;;;;;;;-144.73;100.00;54473.38;5020265;28;20124;-73
2023/09/02 05:15:12;;;;;;;22.55;9.65;;;;;;;-144.73;100.00;54461.06;5036945;28;20044;-73
2023/09/02 05:17:37;;;;;;;21.25;10.85;;;;;;;-144.73;100.00;54473.38;5034166;28;20037;-74
2023/09/02 05:20:04;;;;;;;23.02;10.90;;;;;;;-144.73;100.00;54469.28;5037336;28;20058;-74
2023/09/02 05:22:30;;;;;;;17.35;11.23;;;;;;;-144.73;100.00;54440.53;5023009;28;20068;-74
2023/09/02 05:24:55;;;;;;;22.05;10.52;;;;;;;-144.73;100.00;54463.13;5024106;28;20025;-74
2023/09/02 05:27:21;;;;;;;20.13;10.00;;;;;;;-144.73;100.00;54440.53;5024975;28;20048;-74
2023/09/02 05:29:48;;;;;;;18.45;10.23;;;;;;;-144.73;100.00;54489.81;5022999;28;20033;-74
2023/09/02 05:32:13;;;;;;;16.05;9.85;;;;;;;-144.73;100.00;54452.84;5018723;28;20071;-73
2023/09/02 05:34:40;;;;;;;18.73;10.68;;;;;;;-144.73;100.00;54440.53;5019948;28;20427;-73
2023/09/02 05:37:05;;;;;;;21.73;10.82;;;;;;;-144.73;100.00;54436.44;5044444;28;20028;-73
2023/09/02 05:39:30;;;;;;;20.27;10.27;;;;;;;-144.73;100.00;54477.47;5022578;28;20048;-73
2023/09/02 05:41:56;;;;;;;23.27;10.50;;;;;;;-144.73;100.00;54465.16;5037169;28;20017;-73
2023/09/02 05:44:21;;;;;;;18.45;9.50;;;;;;;-144.73;100.00;54456.97;5022501;28;20424;-74
2023/09/02 05:46:47;;;;;;;19.13;10.23;;;;;;;-144.73;100.00;54448.75;5013459;28;20021;-72
2023/09/02 05:49:15;;;;;;;23.05;11.20;;;;;;;-144.73;100.00;54481.59;5011610;28;20120;-73
2023/09/02 05:51:40;;;;;;;22.40;10.98;;;;;;;-144.73;100.00;54465.16;5020023;28;20075;-73
2023/09/02 05:54:07;;;;;;;20.73;10.40;;;;;;;-144.73;100.00;54481.59;5022973;28;20045;-72
2023/09/02 05:56:34;;;;;;;20.15;10.57;;;;;;;-144.73;100.00;54452.84;5041159;28;20401;-72
2023/09/02 05:59:00;;;;;;;23.35;10.30;;;;;;;-144.73;100.00;54438.50;5016975;28;20033;-72
2023/09/02 06:01:25;;;;;;;17.15;8.45;;;;;;;-144.73;100.00;54461.06;5019603;28;20112;-72
2023/09/02 06:03:50;;;;;;;20.83;10.00;;;;;;;-144.73;100.00;54477.47;5033438;28;20033;-72
2023/09/02 06:06:16;;;;;;;18.20;9.73;;;;;;;-144.73;100.00;54461.06;5015852;28;20033;-72
2023/09/02 06:08:41;;;;;;;16.23;8.88;;;;;;;-144.73;100.00;54483.66;5022847;28;20034;-73
2023/09/02 06:11:06;;;;;;;20.00;9.40;;;;;;;-144.73;100.00;54446.69;5026858;28;20032;-72
2023/09/02 06:13:32;;;;;;;18.58;9.77;;;;;;;-144.73;100.00;54438.50;5021908;28;20041;-73
2023/09/02 06:15:59;;;;;;;22.00;11.00;;;;;;;-144.73;100.00;54448.75;5029537;28;20036;-73
2023/09/02 06:18:28;;;;;;;22.48;10.93;;;;;;;-144.73;100.00;54469.28;5017326;28;20033;-75
2023/09/02 06:20:54;;;;;;;26.35;11.07;;;;;;;-144.73;100.00;54440.53;5028452;28;20021;-74
2023/09/02 06:23:19;;;;;;;22.70;10.68;;;;;;;-144.73;100.00;54481.59;5047836;28;20040;-74
2023/09/02 06:25:54;;;;;;;20.02;10.95;;;;;;;-144.73;100.00;54469.28;5031561;28;20017;-74
2023/09/02 06:28:20;;;;;;;25.25;10.73;;;;;;;-144.73;100.00;54456.97;5019857;28;20033;-74
2023/09/02 06:30:45;;;;;;;21.55;11.35;;;;;;;-144.73;100.00;54459.00;5026424;28;20076;-74
2023/09/02 06:33:10;;;;;;;17.27;10.48;;;;;;;-144.73;100.00;54456.97;5036357;28;20034;-74
2023/09/02 06:35:35;;;;;;;24.15;11.18;;;;;;;-144.73;100.00;54465.16;5017749;28;20052;-74
2023/09/02 06:38:01;;;;;;;20.23;10.43;;;;;;;-144.73;100.00;54481.59;5023708;28;20086;-74
2023/09/02 06:40:29;;;;;;;17.92;9.68;;;;;;;-144.73;100.00;54518.53;5029115;28;20056;-74
2023/09/02 06:42:54;;;;;;;19.35;10.30;;;;;;;-144.73;100.00;54506.22;5038236;28;20566;-74
2023/09/02 06:45:19;;;;;;;22.10;10.57;;;;;;;-144.73;100.00;54491.84;5026074;28;20017;-74
2023/09/02 06:47:45;;;;;;;25.67;11.95;;;;;;;-144.73;100.00;54473.38;5024777;28;20040;-73
2023/09/02 06:50:10;;;;;;;17.48;10.63;;;;;;;-144.73;100.00;54465.16;5021969;28;20071;-74
2023/09/02 06:52:35;;;;;;;16.73;9.40;;;;;;;-144.73;100.00;54444.66;5028271;28;20476;-74
2023/09/02 06:55:03;;;;;;;20.83;9.68;;;;;;;-144.73;100.00;54452.84;5026582;28;20030;-74
2023/09/02 06:57:29;;;;;;;23.38;10.50;;;;;;;-144.73;100.00;54440.53;5018462;28;20475;-74
2023/09/02 06:59:54;;;;;;;14.82;9.15;;;;;;;-144.73;100.00;54452.84;5036628;28;20020;-74
2023/09/02 07:02:19;;;;;;;18.23;9.95;;;;;;;-144.73;100.00;54456.97;5027469;28;20028;-74
2023/09/02 07:04:48;;;;;;;20.23;9.45;;;;;;;-144.73;100.00;54456.97;5020774;28;20479;-74
2023/09/02 07:07:13;;;;;;;13.10;8.55;;;;;;;-144.73;100.00;54477.47;5020415;28;20032;-74
2023/09/02 07:09:38;;;;;;;17.00;7.82;;;;;;;-144.73;100.00;54477.47;5039524;28;20037;-73
2023/09/02 07:12:04;;;;;;;15.90;7.68;;;;;;;-144.73;100.00;54469.28;5034117;28;20036;-74
2023/09/02 07:14:29;;;;;;;14.55;7.60;;;;;;;-144.73;100.00;54518.53;5026380;28;20040;-74
2023/09/02 07:16:55;;;;;;;12.88;7.00;;;;;;;-144.73;100.00;54469.28;5041391;28;20029;-74
2023/09/02 07:19:20;;;;;;;14.05;7.00;;;;;;;-144.73;100.00;54454.91;5026466;28;20044;-74
2023/09/02 07:21:46;;;;;;;12.02;6.47;;;;;;;-144.73;100.00;54473.38;5020086;28;20025;-73
2023/09/02 07:24:14;;;;;;;9.25;5.03;;;;;;;-144.73;100.00;54438.50;5023375;28;20429;-74
2023/09/02 07:26:40;;;;;;;12.52;5.57;;;;;;;-144.73;100.00;54424.13;5027686;28;20060;-74
2023/09/02 07:29:06;;;;;;;10.68;5.90;;;;;;;-144.73;100.00;54498.00;5024484;28;20038;-74
2023/09/02 07:31:31;;;;;;;16.55;5.28;;;;;;;-144.73;100.00;54495.97;5029602;28;20043;-74
2023/09/02 07:33:57;;;;;;;9.63;5.00;;;;;;;-144.73;100.00;54440.53;5013506;28;20045;-76
2023/09/02 07:36:22;;;;;;;11.95;5.53;;;;;;;-144.73;100.00;54424.13;5031042;28;20021;-71
2023/09/02 07:38:47;;;;;;;12.70;5.75;;;;;;;-144.73;100.00;54444.66;5013140;28;20089;-71
2023/09/02 07:41:13;;;;;;;10.32;3.83;;;;;;;-144.73;100.00;54481.59;5012637;28;20029;-72
2023/09/02 07:43:38;;;;;;;13.63;5.40;;;;;;;-144.73;100.00;54415.91;5012821;28;20042;-71
2023/09/02 07:46:04;;;;;;;11.55;5.07;;;;;;;-144.73;100.00;54407.69;5012748;28;20033;-71
2023/09/02 07:48:29;;;;;;;9.32;3.75;;;;;;;-144.73;100.00;54452.84;5030234;28;20030;-71
2023/09/02 07:50:54;;;;;;;7.18;3.92;;;;;;;-144.73;100.00;54434.38;5030395;28;20017;-72
2023/09/02 07:53:20;;;;;;;7.45;4.78;;;;;;;-144.73;100.00;54446.69;5011721;28;20087;-71
2023/09/02 07:55:46;;;;;;;9.52;4.30;;;;;;;-144.73;100.00;54424.13;5030446;28;20079;-72
2023/09/02 07:58:11;;;;;;;5.75;3.40;;;;;;;-144.73;100.00;54407.69;5012051;28;20033;-72
2023/09/02 08:00:38;;;;;;;11.60;3.50;;;;;;;-144.73;100.00;54415.91;5030870;28;20049;-72
2023/09/02 08:03:04;;;;;;;6.00;2.53;;;;;;;-144.73;100.00;54450.81;5014185;28;20080;-72
2023/09/02 08:05:29;;;;;;;6.40;3.15;;;;;;;-144.73;100.00;54426.16;5014562;28;20432;-71
2023/09/02 08:07:55;;;;;;;4.05;2.55;;;;;;;-144.73;100.00;54415.91;5014107;28;20046;-72
2023/09/02 08:10:21;;;;;;;3.35;2.20;;;;;;;-144.73;100.00;54444.66;5013945;28;20032;-72
2023/09/02 08:12:46;;;;;;;6.72;2.85;;;;;;;-144.73;100.00;54440.53;5014285;28;20060;-73
2023/09/02 08:15:13;;;;;;;6.72;2.85;;;;;;;-144.73;100.00;54420.00;5015258;28;20025;-72
2023/09/02 08:17:39;;;;;;;2.60;2.00;;;;;;;-144.73;100.00;54432.31;5013459;28;20164;-72
2023/09/02 08:20:06;;;;;;;5.20;2.10;;;;;;;-144.73;100.00;54420.00;5014372;28;20024;-72
2023/09/02 08:22:32;;;;;;;4.65;1.98;;;;;;;-144.73;100.00;54417.97;5032443;28;20029;-72
2023/09/02 08:24:57;;;;;;;6.40;2.05;;;;;;;-144.73;100.00;54420.00;5014549;28;20372;-72
2023/09/02 08:27:24;;;;;;;2.35;1.80;;;;;;;-144.73;100.00;54444.66;5013522;28;20040;-72
2023/09/02 08:29:50;;;;;;;5.90;2.03;;;;;;;-144.73;100.00;54465.16;5032408;28;20052;-72
2023/09/02 08:32:15;;;;;;;3.47;1.95;;;;;;;-144.73;100.00;54424.13;5013752;28;20025;-72
2023/09/02 08:34:41;;;;;;;2.10;1.58;;;;;;;-144.73;100.00;54450.81;5030537;28;20070;-72
2023/09/02 08:37:06;;;;;;;7.70;2.38;;;;;;;-144.73;100.00;54444.66;5031950;28;20032;-72
2023/09/02 08:39:32;;;;;;;3.97;1.90;;;;;;;-144.73;100.00;54461.06;5014093;28;20536;-72
2023/09/02 08:41:57;;;;;;;6.15;2.03;;;;;;;-144.73;100.00;54456.97;5031326;28;20059;-72
2023/09/02 08:44:27;;;;;;;3.42;1.80;;;;;;;-144.73;100.00;54420.00;5030526;28;20029;-73
2023/09/02 08:46:53;;;;;;;3.28;1.77;;;;;;;-144.73;100.00;54358.44;5014136;28;20036;-73
2023/09/02 08:49:20;;;;;;;4.07;1.85;;;;;;;-144.73;100.00;54407.69;5013658;28;20508;-72
2023/09/02 08:51:46;;;;;;;3.65;1.48;;;;;;;-144.73;100.00;54456.97;5013683;28;20041;-72
2023/09/02 08:54:13;;;;;;;4.93;1.90;;;;;;;-144.73;100.00;54391.28;5013292;28;20516;-72
2023/09/02 08:56:43;;;;;;;3.35;1.90;;;;;;;-144.73;100.00;54399.50;5031713;28;20034;-72
2023/09/02 08:59:09;;;;;;;10.77;3.15;;;;;;;-144.73;100.00;54420.00;5012523;28;20038;-72
2023/09/02 09:01:41;;;;;;;10.93;5.10;;;;;;;-144.73;100.00;54407.69;5013982;28;20029;-73
2023/09/02 09:04:07;;;;;;;3.97;2.00;;;;;;;-144.73;100.00;54417.97;5013500;28;20155;-72
2023/09/02 09:06:36;;;;;;;3.42;1.80;;;;;;;-144.73;100.00;54448.75;5013385;28;20636;-72
2023/09/02 09:09:01;;;;;;;3.75;1.90;;;;;;;-144.73;100.00;54434.38;5013292;28;20033;-73
2023/09/02 09:11:31;;;;;;;4.00;1.90;;;;;;;-144.73;100.00;54434.38;5030623;28;20023;-72
2023/09/02 09:14:01;;;;;;;6.10;1.83;;;;;;;-144.73;100.00;54391.28;5030276;28;20037;-72
2023/09/02 09:16:33;;;;;;;5.88;2.08;;;;;;;-144.73;100.00;54399.50;5013739;28;20021;-73
2023/09/02 09:18:59;;;;;;;5.32;2.00;;;;;;;-144.73;100.00;54374.84;5013043;28;20044;-73
2023/09/02 09:21:25;;;;;;;2.88;1.65;;;;;;;-144.73;100.00;54395.38;5030477;28;20013;-72
2023/09/02 09:23:50;;;;;;;3.78;1.90;;;;;;;-144.73;100.00;54391.28;5012504;28;20392;-73
2023/09/02 09:26:16;;;;;;;2.45;1.45;;;;;;;-144.73;100.00;54424.13;5013733;28;20052;-73
2023/09/02 09:28:52;;;;;;;12.48;1.90;;;;;;;-144.73;100.00;54378.97;5012562;28;20088;-72
2023/09/02 09:31:19;;;;;;;2.88;1.67;;;;;;;-144.73;99.35;54391.28;5012762;28;20021;-73
2023/09/02 09:33:58;;;;;;;3.10;1.90;;;;;;;-144.73;93.04;54428.22;5012315;28;20038;-73
2023/09/02 09:36:25;;;;;;;8.65;1.80;;;;;;;-144.73;92.80;54440.53;5013103;28;20033;-74
2023/09/02 09:38:53;;;;;;;4.82;1.55;;;;;;;-144.73;93.07;54424.13;5012950;28;20029;-73
2023/09/02 09:41:19;;;;;;;2.97;1.50;;;;;;;-144.73;92.21;54407.69;5012320;28;20063;-73
2023/09/02 09:43:44;;;;;;;4.88;1.48;;;;;;;-144.73;94.62;54395.38;5012411;28;20053;-74
2023/09/02 09:46:15;;;;;;;8.23;2.20;;;;;;;-144.73;94.63;54391.28;5012047;28;20023;-73
2023/09/02 09:48:48;;;;;;;3.97;1.50;;;;;;;-144.73;100.00;54370.75;5012405;28;20060;-72
2023/09/02 09:51:23;;;;;;;6.07;1.55;;;;;;;-144.73;99.93;54378.97;5028936;28;20025;-73
2023/09/02 09:53:48;;;;;;;3.05;1.77;;;;;;;-144.73;95.97;54385.13;5028339;28;20044;-73
2023/09/02 09:56:14;;;;;;;5.95;1.58;;;;;;;-144.73;89.74;54417.97;5030521;28;20544;-73
2023/09/02 09:58:39;;;;;;;2.25;1.60;;;;;;;-144.73;87.26;54407.69;5029605;28;20116;-73
2023/09/02 10:01:05;;;;;;;5.50;1.75;;;;;;;-144.73;91.07;54413.84;5016579;28;20029;-74
2023/09/02 10:03:30;;;;;;;4.30;1.55;;;;;;;-144.73;90.42;54362.53;5011991;28;20044;-73
2023/09/02 10:06:00;;;;;;;3.80;2.47;;;;;;;-144.73;90.66;54370.75;5030226;28;20099;-74
2023/09/02 10:08:25;;;;;;;2.10;1.30;;;;;;;-144.73;85.03;54407.69;5028473;28;20051;-74
2023/09/02 10:10:50;;;;;;;2.67;1.58;;;;;;;-144.73;87.66;54393.34;5029040;28;20033;-73
2023/09/02 10:13:17;;;;;;;6.22;1.75;;;;;;;-144.73;90.80;54372.81;5027469;28;20030;-73
2023/09/02 10:15:42;;;;;;;3.05;1.50;;;;;;;-144.73;84.33;54350.22;5013068;28;20160;-73
2023/09/02 10:18:07;;;;;;;2.83;1.30;;;;;;;-144.73;82.63;54385.13;5012732;28;20108;-73
2023/09/02 10:20:35;;;;;;;1.85;1.60;;;;;;;-144.73;80.97;54383.06;5012430;28;20024;-74
2023/09/02 10:23:10;;;;;;;3.42;1.40;;;;;;;-144.73;82.68;54362.53;5011637;28;20025;-73
2023/09/02 10:26:05;;;;;;;3.28;1.48;;;;;;;-144.73;80.86;54362.53;5030067;28;20027;-74
2023/09/02 10:28:38;;;;;;;4.43;1.60;;;;;;;-144.73;70.17;54329.72;5012091;28;20025;-73
2023/09/02 10:31:12;;;;;;;2.80;1.48;;;;;;;-144.73;70.79;54358.44;5028866;28;20060;-73
2023/09/02 10:33:49;;;;;;;3.65;1.60;;;;;;;-144.73;67.01;54342.03;5029698;28;20037;-73
2023/09/02 10:36:18;;;;;;;5.00;2.42;;;;;;;-144.73;68.81;54342.03;5030244;28;20022;-72
2023/09/02 10:38:48;;;;;;;3.00;1.60;;;;;;;-144.73;71.92;54346.13;5029835;28;20057;-72
2023/09/02 10:41:15;;;;;;;2.30;1.30;;;;;;;-144.73;71.01;54424.13;5011756;28;20022;-73
2023/09/02 10:43:42;;;;;;;2.78;1.63;;;;;;;-144.73;71.86;54399.50;5011540;28;20038;-74
2023/09/02 10:46:08;;;;;;;4.63;1.60;;;;;;;-144.73;76.54;54378.97;5029787;28;20049;-73
2023/09/02 10:48:36;;;;;;;4.05;1.70;;;;;;;-144.73;75.36;54362.53;5011807;28;20053;-73
2023/09/02 10:51:07;;;;;;;10.98;2.10;;;;;;;-144.73;77.07;54333.81;5029544;28;20022;-73
2023/09/02 10:53:47;;;;;;;5.10;1.90;;;;;;;-144.73;76.52;54342.03;5011596;28;20041;-73
2023/09/02 10:56:26;;;;;;;3.05;1.70;;;;;;;-144.73;79.27;54335.88;5012234;28;20036;-73
2023/09/02 10:58:52;;;;;;;2.45;1.55;;;;;;;-144.73;77.01;54378.97;5033222;28;20431;-73
2023/09/02 11:01:17;;;;;;;4.57;1.92;;;;;;;-144.73;76.20;54354.34;5015183;28;20056;-73
2023/09/02 11:03:45;;;;;;;3.17;1.60;;;;;;;-144.73;74.95;54387.19;5015853;28;20034;-73